Time;durP1;ratioP1;P1;durP2;ratioP2;P2;SDS_P1;SDS_P2;PMS_P1;PMS_P2;Temp;Humidity;BMP_temperature;BMP_pressure;BME280_temperature;BME280_humidity;BME280_pressure;Samples;Min_cycle;Max_cycle;Signal;HPM_P1;HPM_P2
2022/10/08 00:01:05;;;;;;;7.03;5.60;;;18.00;90.80;;;;;;5070686;28;20190;-67
2022/10/08 00:03:35;;;;;;;6.10;5.28;;;18.00;90.90;;;;;;5070713;28;20170;-67
2022/10/08 00:06:11;;;;;;;5.53;5.03;;;18.00;90.80;;;;;;5070469;28;20222;-67
2022/10/08 00:08:40;;;;;;;6.20;5.60;;;18.00;90.80;;;;;;5087066;28;20199;-66
2022/10/08 00:11:10;;;;;;;6.30;5.70;;;18.00;90.80;;;;;;5070306;28;20177;-67
2022/10/08 00:13:39;;;;;;;9.00;5.95;;;18.00;90.80;;;;;;5056013;28;20205;-67
2022/10/08 00:16:23;;;;;;;6.47;5.53;;;18.00;90.80;;;;;;5073939;28;20240;-68
2022/10/08 00:18:52;;;;;;;5.70;5.20;;;18.00;90.90;;;;;;5057691;28;20568;-67
2022/10/08 00:21:27;;;;;;;6.82;5.60;;;18.00;90.80;;;;;;5074128;28;20205;-67
2022/10/08 00:23:53;;;;;;;5.97;5.38;;;18.00;90.80;;;;;;5057474;28;20193;-67
2022/10/08 00:26:23;;;;;;;4.97;4.57;;;18.00;90.80;;;;;;5075137;28;20213;-67
2022/10/08 00:28:51;;;;;;;5.90;5.28;;;18.00;90.70;;;;;;5057200;28;20235;-67
2022/10/08 00:31:31;;;;;;;5.20;4.80;;;17.90;90.70;;;;;;5074035;28;20196;-65
2022/10/08 00:34:04;;;;;;;5.75;5.25;;;18.00;90.70;;;;;;5074217;28;20182;-67
2022/10/08 00:36:36;;;;;;;6.13;5.30;;;18.00;90.70;;;;;;5073852;28;20209;-67
2022/10/08 00:39:15;;;;;;;5.90;5.30;;;18.00;90.70;;;;;;5057216;28;20193;-67
2022/10/08 00:41:43;;;;;;;6.00;5.50;;;18.00;90.60;;;;;;5091052;28;20209;-68
2022/10/08 00:44:54;;;;;;;5.82;5.22;;;18.00;90.70;;;;;;5073742;28;20225;-67
2022/10/08 00:47:32;;;;;;;5.93;5.38;;;18.00;90.70;;;;;;5073603;28;20263;-66
2022/10/08 00:50:38;;;;;;;5.47;4.97;;;18.00;90.60;;;;;;5073431;28;20310;-67
2022/10/08 00:53:07;;;;;;;5.30;4.80;;;18.00;90.60;;;;;;5073595;28;20192;-68
2022/10/08 00:55:38;;;;;;;5.70;5.20;;;18.00;90.60;;;;;;5056105;28;20209;-67
2022/10/08 00:58:17;;;;;;;5.65;5.15;;;18.00;90.60;;;;;;5072780;28;20185;-66
2022/10/08 01:00:43;;;;;;;6.20;5.60;;;18.00;90.70;;;;;;5073779;28;20181;-66
2022/10/08 01:03:09;;;;;;;5.80;5.30;;;18.00;90.70;;;;;;5073350;28;20266;-67
2022/10/08 01:06:21;;;;;;;6.22;5.13;;;17.90;90.60;;;;;;5056734;28;20304;-67
2022/10/08 01:09:15;;;;;;;5.50;5.00;;;18.00;90.60;;;;;;5073066;28;20186;-67
2022/10/08 01:11:52;;;;;;;5.18;4.68;;;17.90;90.50;;;;;;5090367;28;20200;-67
2022/10/08 01:15:08;;;;;;;5.57;5.07;;;17.90;90.50;;;;;;5073010;28;20203;-67
2022/10/08 01:17:57;;;;;;;5.22;4.63;;;17.90;90.60;;;;;;5090186;28;20248;-67
2022/10/08 01:20:45;;;;;;;5.63;4.80;;;18.00;90.60;;;;;;5073014;28;20240;-68
2022/10/08 01:23:19;;;;;;;5.60;4.85;;;17.90;90.50;;;;;;5074098;28;20655;-67
2022/10/08 01:25:54;;;;;;;6.13;5.25;;;17.90;90.50;;;;;;5073066;28;20250;-67
2022/10/08 01:28:36;;;;;;;5.35;4.85;;;17.90;90.50;;;;;;5073063;28;20536;-66
2022/10/08 01:31:14;;;;;;;5.50;5.00;;;17.90;90.50;;;;;;5072909;28;20236;-66
2022/10/08 01:34:11;;;;;;;4.97;4.50;;;17.90;90.50;;;;;;5073124;28;20706;-68
2022/10/08 01:36:47;;;;;;;5.10;4.70;;;17.90;90.50;;;;;;5056339;28;20205;-68
2022/10/08 01:39:17;;;;;;;5.30;4.72;;;17.90;90.50;;;;;;5071881;28;20292;-68
2022/10/08 01:41:52;;;;;;;5.72;4.90;;;17.90;90.50;;;;;;5072927;28;20549;-66
2022/10/08 01:44:35;;;;;;;5.05;4.65;;;17.90;90.50;;;;;;5073118;28;20599;-65
2022/10/08 01:47:07;;;;;;;5.78;5.18;;;17.90;90.50;;;;;;5055704;28;20266;-67
2022/10/08 01:49:42;;;;;;;6.22;5.03;;;17.90;90.60;;;;;;5073441;28;20669;-67
2022/10/08 01:52:25;;;;;;;5.60;5.10;;;17.90;90.60;;;;;;5072437;28;20177;-67
2022/10/08 01:54:56;;;;;;;5.57;4.82;;;17.90;90.50;;;;;;5089431;28;20622;-67
2022/10/08 01:57:26;;;;;;;5.40;4.72;;;17.90;90.50;;;;;;5072570;28;20263;-67
2022/10/08 02:00:08;;;;;;;5.55;4.88;;;17.90;90.50;;;;;;5072210;28;20185;-67
2022/10/08 02:02:41;;;;;;;5.07;4.60;;;17.90;90.80;;;;;;5072594;28;20277;-67
2022/10/08 02:05:10;;;;;;;4.75;4.35;;;17.90;90.40;;;;;;5072070;28;20186;-67
2022/10/08 02:07:41;;;;;;;4.80;4.40;;;17.90;90.40;;;;;;5073254;28;20197;-67
2022/10/08 02:10:20;;;;;;;5.03;4.63;;;17.90;90.40;;;;;;5055770;28;20253;-68
2022/10/08 02:12:45;;;;;;;5.13;4.70;;;17.90;90.40;;;;;;5055388;28;20180;-66
2022/10/08 02:15:24;;;;;;;5.13;4.47;;;17.90;90.40;;;;;;5071955;28;20185;-67
2022/10/08 02:18:05;;;;;;;5.80;5.30;;;17.90;90.40;;;;;;5071995;28;20177;-68
2022/10/08 02:20:41;;;;;;;5.00;4.60;;;17.90;90.50;;;;;;5073093;28;20173;-68
2022/10/08 02:23:19;;;;;;;6.20;4.80;;;17.90;90.40;;;;;;5067511;28;20214;-68
2022/10/08 02:26:00;;;;;;;4.70;4.28;;;17.90;90.30;;;;;;5086191;28;20313;-66
2022/10/08 02:29:16;;;;;;;4.70;4.30;;;17.90;90.30;;;;;;5051594;28;20175;-65
2022/10/08 02:32:21;;;;;;;5.45;4.95;;;17.90;90.30;;;;;;5003858;28;20208;-67
2022/10/08 02:34:56;;;;;;;5.40;4.82;;;17.90;90.40;;;;;;5051969;28;20185;-65
2022/10/08 02:37:41;;;;;;;4.68;4.28;;;17.90;90.30;;;;;;5034843;28;20205;-67
2022/10/08 02:40:12;;;;;;;5.13;4.63;;;17.90;90.30;;;;;;5051406;28;20289;-66
2022/10/08 02:42:45;;;;;;;4.97;4.57;;;17.90;90.30;;;;;;5035027;28;20180;-68
2022/10/08 02:45:28;;;;;;;4.80;4.30;;;17.90;90.30;;;;;;5051412;28;20256;-68
2022/10/08 02:48:05;;;;;;;5.13;4.63;;;17.90;90.30;;;;;;5051309;28;20171;-67
2022/10/08 02:50:35;;;;;;;4.63;4.22;;;17.90;90.30;;;;;;5035135;28;20233;-67
2022/10/08 02:53:02;;;;;;;5.45;4.80;;;17.90;90.30;;;;;;5034822;28;20244;-68
2022/10/08 02:55:43;;;;;;;5.03;4.55;;;17.90;90.30;;;;;;5034752;28;20218;-65
2022/10/08 02:58:11;;;;;;;4.88;4.15;;;17.90;90.30;;;;;;5034451;28;20187;-67
2022/10/08 03:00:51;;;;;;;4.53;4.13;;;17.90;90.30;;;;;;5034582;28;20204;-67
2022/10/08 03:03:39;;;;;;;5.00;4.50;;;17.90;90.30;;;;;;5034588;28;20175;-67
2022/10/08 03:06:11;;;;;;;4.47;4.18;;;17.90;90.30;;;;;;5034444;28;20228;-67
2022/10/08 03:08:45;;;;;;;5.15;4.65;;;17.90;90.30;;;;;;5050931;28;20567;-65
2022/10/08 03:11:12;;;;;;;4.90;4.50;;;17.90;90.30;;;;;;5051487;28;20232;-67
2022/10/08 03:13:43;;;;;;;4.97;4.47;;;17.90;90.30;;;;;;5034494;28;20646;-67
2022/10/08 03:16:16;;;;;;;5.22;4.72;;;17.90;90.30;;;;;;5050994;28;20272;-66
2022/10/08 03:18:43;;;;;;;5.03;4.63;;;17.90;90.30;;;;;;5050818;28;20646;-68
2022/10/08 03:21:12;;;;;;;5.00;4.50;;;17.90;90.30;;;;;;5050939;28;20210;-66
2022/10/08 03:23:38;;;;;;;5.22;4.72;;;17.90;90.30;;;;;;5051321;28;20681;-66
2022/10/08 03:26:04;;;;;;;4.63;4.15;;;17.90;90.30;;;;;;5050642;28;20317;-67
2022/10/08 03:28:30;;;;;;;4.68;4.28;;;17.90;90.20;;;;;;5034126;28;20548;-67
2022/10/08 03:30:56;;;;;;;4.97;4.57;;;17.90;90.20;;;;;;5050955;28;20217;-65
2022/10/08 03:33:22;;;;;;;4.65;4.22;;;17.90;90.20;;;;;;5051085;28;20312;-68
2022/10/08 03:35:47;;;;;;;4.97;4.55;;;17.90;90.20;;;;;;5051968;28;20236;-66
2022/10/08 03:38:15;;;;;;;4.78;4.38;;;17.90;90.20;;;;;;5034230;28;20182;-67
2022/10/08 03:40:42;;;;;;;4.60;4.20;;;17.90;90.20;;;;;;5050751;28;20186;-65
2022/10/08 03:43:08;;;;;;;4.65;4.20;;;17.90;90.10;;;;;;5067448;28;20183;-67
2022/10/08 03:45:33;;;;;;;4.82;3.85;;;17.90;90.10;;;;;;5050775;28;20226;-67
2022/10/08 03:47:59;;;;;;;4.55;4.15;;;17.90;90.10;;;;;;5054471;28;20174;-67
2022/10/08 03:50:25;;;;;;;4.10;3.75;;;17.90;90.10;;;;;;5055912;28;20174;-67
2022/10/08 03:52:50;;;;;;;4.30;3.90;;;17.90;90.10;;;;;;5054869;28;20292;-67
2022/10/08 03:55:16;;;;;;;4.38;4.05;;;17.90;90.10;;;;;;5038293;28;20193;-67
2022/10/08 03:57:42;;;;;;;4.55;4.15;;;17.90;90.20;;;;;;5068460;28;20190;-67
2022/10/08 04:00:09;;;;;;;4.53;4.13;;;17.90;90.20;;;;;;5054730;28;20185;-67
2022/10/08 04:02:35;;;;;;;4.57;4.18;;;17.90;90.20;;;;;;5071250;28;20190;-67
2022/10/08 04:05:01;;;;;;;4.50;4.10;;;17.90;90.10;;;;;;5054539;28;20190;-67
2022/10/08 04:07:26;;;;;;;4.32;3.92;;;17.90;90.20;;;;;;5054237;28;20222;-67
2022/10/08 04:09:52;;;;;;;4.25;3.85;;;17.90;90.20;;;;;;5054228;28;20190;-67
2022/10/08 04:12:18;;;;;;;4.40;4.03;;;17.90;90.10;;;;;;5071134;28;20672;-67
2022/10/08 04:14:43;;;;;;;4.32;4.03;;;17.80;90.10;;;;;;5054498;28;20191;-66
2022/10/08 04:17:09;;;;;;;4.40;4.00;;;17.80;90.10;;;;;;5084745;22;20230;-71
2022/10/08 04:19:35;;;;;;;4.22;3.83;;;17.80;90.10;;;;;;5037168;28;20222;-71
2022/10/08 04:22:01;;;;;;;4.18;3.78;;;17.80;90.10;;;;;;5054340;28;20190;-70
2022/10/08 04:24:26;;;;;;;4.32;3.92;;;17.80;90.10;;;;;;5037675;28;20197;-69
2022/10/08 04:26:52;;;;;;;6.25;4.25;;;17.90;90.10;;;;;;5037320;28;20237;-70
2022/10/08 04:29:18;;;;;;;4.38;3.97;;;17.90;90.10;;;;;;5037378;28;20182;-71
2022/10/08 04:31:43;;;;;;;4.30;4.00;;;17.80;90.00;;;;;;5054274;28;20194;-70
2022/10/08 04:34:10;;;;;;;4.00;3.70;;;17.80;90.10;;;;;;5054206;28;20190;-70
2022/10/08 04:36:37;;;;;;;4.28;3.88;;;17.90;90.10;;;;;;5055390;28;20237;-70
2022/10/08 04:39:03;;;;;;;4.00;3.70;;;17.80;90.00;;;;;;5037590;28;20250;-70
2022/10/08 04:41:29;;;;;;;3.78;3.47;;;17.80;90.00;;;;;;5037402;28;20285;-69
2022/10/08 04:44:00;;;;;;;4.13;3.72;;;17.80;90.00;;;;;;5054263;28;20190;-70
2022/10/08 04:46:26;;;;;;;4.00;3.60;;;17.80;90.00;;;;;;5053921;28;20219;-69
2022/10/08 04:48:55;;;;;;;3.78;3.47;;;17.90;90.10;;;;;;5037059;28;20186;-70
2022/10/08 04:51:24;;;;;;;4.07;3.72;;;17.80;90.00;;;;;;5053674;28;20193;-70
2022/10/08 04:53:53;;;;;;;3.90;3.60;;;17.90;90.10;;;;;;5053606;28;20178;-70
2022/10/08 04:56:27;;;;;;;4.28;3.85;;;17.80;90.00;;;;;;5053543;28;20301;-70
2022/10/08 04:58:54;;;;;;;3.92;3.63;;;17.80;90.10;;;;;;5052529;28;20194;-68
2022/10/08 05:01:20;;;;;;;3.83;3.53;;;17.80;90.00;;;;;;5053527;28;20210;-70
2022/10/08 05:03:50;;;;;;;3.92;3.63;;;17.80;90.00;;;;;;5036912;28;20193;-70
2022/10/08 05:06:19;;;;;;;4.00;3.70;;;17.80;90.00;;;;;;5036610;28;20210;-69
2022/10/08 05:08:46;;;;;;;3.78;3.47;;;17.80;90.10;;;;;;5036808;28;20202;-70
2022/10/08 05:11:13;;;;;;;4.05;3.75;;;17.80;90.00;;;;;;5053359;28;20179;-69
2022/10/08 05:13:40;;;;;;;3.53;3.22;;;17.80;90.00;;;;;;5053490;28;20191;-69
2022/10/08 05:16:10;;;;;;;3.85;3.55;;;17.80;90.00;;;;;;5036409;28;20226;-69
2022/10/08 05:18:38;;;;;;;3.40;3.20;;;17.80;90.00;;;;;;5053592;28;20178;-70
2022/10/08 05:21:10;;;;;;;3.63;3.33;;;17.80;90.00;;;;;;5053258;28;20179;-70
2022/10/08 05:23:37;;;;;;;4.40;4.00;;;17.80;90.00;;;;;;5054324;28;20190;-68
2022/10/08 05:26:18;;;;;;;3.67;3.38;;;17.90;90.00;;;;;;5053047;28;20207;-70
2022/10/08 05:28:46;;;;;;;3.35;3.10;;;17.80;90.00;;;;;;5053267;28;20186;-70
2022/10/08 05:31:14;;;;;;;3.45;3.15;;;17.80;90.00;;;;;;5041053;28;20209;-70
2022/10/08 05:33:40;;;;;;;3.78;3.33;;;17.80;90.00;;;;;;5041361;28;20176;-69
2022/10/08 05:36:15;;;;;;;3.70;3.35;;;17.80;90.00;;;;;;5034112;28;20686;-70
2022/10/08 05:38:42;;;;;;;4.00;3.70;;;17.80;90.00;;;;;;5007211;28;20278;-70
2022/10/08 05:41:16;;;;;;;3.47;3.17;;;17.80;90.00;;;;;;5014440;28;20188;-69
2022/10/08 05:43:43;;;;;;;3.95;3.63;;;17.90;90.00;;;;;;5029613;28;20187;-70
2022/10/08 05:46:10;;;;;;;3.30;3.00;;;17.80;90.00;;;;;;4996819;28;20632;-70
2022/10/08 05:48:37;;;;;;;3.40;3.10;;;17.80;90.00;;;;;;5013064;28;20215;-69
2022/10/08 05:51:05;;;;;;;3.58;3.28;;;17.80;90.00;;;;;;5013064;28;20188;-71
2022/10/08 05:53:37;;;;;;;3.33;3.03;;;17.90;90.00;;;;;;5012699;28;20192;-70
2022/10/08 05:56:06;;;;;;;3.50;3.20;;;17.80;90.00;;;;;;5013086;28;20180;-71
2022/10/08 05:58:35;;;;;;;4.05;3.75;;;17.80;89.90;;;;;;5028092;28;20274;-70
2022/10/08 06:01:15;;;;;;;3.20;2.85;;;17.90;90.00;;;;;;5013835;28;20200;-70
2022/10/08 06:03:42;;;;;;;3.13;2.83;;;17.80;89.80;;;;;;5015630;28;20722;-74
2022/10/08 06:06:10;;;;;;;3.50;3.20;;;17.80;89.80;;;;;;5026969;28;20231;-72
2022/10/08 06:08:37;;;;;;;3.70;3.40;;;17.80;89.80;;;;;;5016341;28;20282;-70
2022/10/08 06:11:04;;;;;;;3.47;3.20;;;17.80;89.90;;;;;;4996360;28;20198;-70
2022/10/08 06:13:31;;;;;;;4.07;3.28;;;17.80;89.90;;;;;;5012829;28;20187;-70
2022/10/08 06:16:07;;;;;;;3.20;2.90;;;17.80;89.80;;;;;;5034351;28;20252;-69
2022/10/08 06:18:36;;;;;;;3.58;2.72;;;17.80;90.00;;;;;;5052094;28;20201;-70
2022/10/08 06:21:09;;;;;;;3.33;3.05;;;17.80;89.90;;;;;;5053378;28;20254;-69
2022/10/08 06:23:39;;;;;;;3.10;2.90;;;17.80;90.00;;;;;;5052358;28;20201;-70
2022/10/08 06:26:09;;;;;;;3.13;2.92;;;17.80;89.90;;;;;;5052200;28;20193;-70
2022/10/08 06:28:37;;;;;;;3.80;3.50;;;17.80;89.80;;;;;;5035453;28;20193;-69
2022/10/08 06:31:05;;;;;;;3.85;3.55;;;17.80;89.80;;;;;;5038169;28;20183;-70
2022/10/08 06:33:32;;;;;;;3.70;3.40;;;17.90;89.90;;;;;;5032117;28;20218;-68
2022/10/08 06:36:11;;;;;;;3.40;3.10;;;17.80;89.70;;;;;;5031995;28;20179;-70
2022/10/08 06:38:37;;;;;;;3.30;3.00;;;17.90;89.80;;;;;;5033028;28;20178;-69
2022/10/08 06:41:03;;;;;;;3.40;3.10;;;17.90;89.90;;;;;;5015314;28;20187;-69
2022/10/08 06:43:29;;;;;;;3.03;2.83;;;17.90;89.90;;;;;;5011972;28;20184;-69
2022/10/08 06:45:55;;;;;;;3.90;3.10;;;17.90;89.90;;;;;;5028555;28;20196;-69
2022/10/08 06:48:22;;;;;;;3.15;2.95;;;17.90;89.90;;;;;;5012174;28;20188;-69
2022/10/08 06:50:47;;;;;;;3.65;3.30;;;17.90;89.90;;;;;;5011858;28;20195;-69
2022/10/08 06:53:13;;;;;;;3.63;3.20;;;17.90;89.90;;;;;;5011912;28;20208;-69
2022/10/08 06:55:40;;;;;;;3.80;2.88;;;17.90;89.90;;;;;;5028279;28;20527;-69
2022/10/08 06:58:05;;;;;;;3.03;2.70;;;17.90;90.00;;;;;;5011963;28;20211;-69
2022/10/08 07:00:32;;;;;;;2.90;2.70;;;17.90;89.90;;;;;;5011553;28;20243;-69
2022/10/08 07:02:57;;;;;;;3.22;3.03;;;17.90;90.00;;;;;;5012873;28;20195;-70
2022/10/08 07:05:24;;;;;;;3.60;3.30;;;17.90;90.00;;;;;;5028119;28;20196;-70
2022/10/08 07:07:50;;;;;;;3.50;3.20;;;17.90;90.00;;;;;;4995996;28;20211;-69
2022/10/08 07:10:16;;;;;;;3.33;3.03;;;17.90;90.00;;;;;;5024404;28;20234;-68
2022/10/08 07:12:41;;;;;;;3.35;3.05;;;17.90;90.00;;;;;;5028117;28;20195;-69
2022/10/08 07:15:08;;;;;;;3.50;3.20;;;17.90;90.00;;;;;;5027886;28;20308;-69
2022/10/08 07:17:34;;;;;;;3.75;3.13;;;17.90;90.00;;;;;;5012607;28;20204;-69
2022/10/08 07:19:59;;;;;;;3.65;3.35;;;17.90;90.00;;;;;;5012881;28;20180;-69
2022/10/08 07:22:25;;;;;;;3.50;3.20;;;17.90;90.00;;;;;;4995639;28;20565;-69
2022/10/08 07:24:51;;;;;;;4.07;3.67;;;17.90;90.10;;;;;;5042386;28;20191;-69
2022/10/08 07:27:19;;;;;;;3.72;3.42;;;17.90;90.10;;;;;;5005922;28;20709;-69
2022/10/08 07:29:45;;;;;;;3.40;3.10;;;17.90;90.20;;;;;;5012078;28;20188;-69
2022/10/08 07:32:11;;;;;;;3.92;3.63;;;17.90;90.20;;;;;;5028101;28;20195;-69
2022/10/08 07:34:36;;;;;;;4.05;3.65;;;17.90;90.30;;;;;;5027896;28;20195;-69
2022/10/08 07:37:02;;;;;;;3.45;3.15;;;17.90;90.30;;;;;;5027769;28;20215;-69
2022/10/08 07:39:28;;;;;;;4.45;3.30;;;17.90;90.30;;;;;;5027780;28;20188;-71
2022/10/08 07:41:54;;;;;;;3.53;3.22;;;18.00;90.30;;;;;;5027789;28;20188;-69
2022/10/08 07:44:20;;;;;;;3.58;3.22;;;17.90;90.30;;;;;;5027768;28;20208;-68
2022/10/08 07:46:49;;;;;;;4.10;3.10;;;17.90;90.30;;;;;;5032627;28;20210;-69
2022/10/08 07:49:17;;;;;;;3.53;3.22;;;17.90;90.40;;;;;;5031999;28;20306;-70
2022/10/08 07:51:44;;;;;;;4.43;3.28;;;18.00;90.60;;;;;;5030988;28;20179;-69
2022/10/08 07:54:15;;;;;;;3.20;2.90;;;17.90;90.50;;;;;;5014393;28;20210;-69
2022/10/08 07:56:41;;;;;;;3.30;3.00;;;17.90;90.60;;;;;;5030856;28;20214;-69
2022/10/08 07:59:07;;;;;;;4.22;3.38;;;18.00;90.60;;;;;;5030698;28;20190;-68
2022/10/08 08:01:34;;;;;;;3.33;2.88;;;18.00;90.50;;;;;;5014693;28;20250;-69
2022/10/08 08:04:07;;;;;;;3.15;2.85;;;18.00;90.60;;;;;;5030904;28;20237;-69
2022/10/08 08:06:39;;;;;;;3.10;2.80;;;18.00;90.60;;;;;;5014225;28;20215;-69
2022/10/08 08:09:05;;;;;;;3.40;3.10;;;18.00;90.70;;;;;;5014403;28;20188;-69
2022/10/08 08:11:30;;;;;;;3.40;3.10;;;18.00;90.70;;;;;;5030835;28;20183;-69
2022/10/08 08:13:56;;;;;;;3.33;2.97;;;18.00;90.70;;;;;;5030770;28;20222;-69
2022/10/08 08:16:28;;;;;;;3.42;3.03;;;18.00;90.70;;;;;;5030728;28;20204;-70
2022/10/08 08:19:00;;;;;;;3.20;2.90;;;18.00;90.90;;;;;;5014307;28;20248;-70
2022/10/08 08:21:32;;;;;;;3.25;2.95;;;18.00;90.90;;;;;;5014567;28;20188;-69
2022/10/08 08:24:08;;;;;;;2.92;2.72;;;18.00;91.00;;;;;;5014071;28;20198;-69
2022/10/08 08:26:37;;;;;;;3.28;2.63;;;18.00;90.90;;;;;;5030687;28;20219;-69
2022/10/08 08:29:11;;;;;;;3.20;2.95;;;18.00;91.30;;;;;;5014184;28;20183;-68
2022/10/08 08:31:42;;;;;;;2.90;2.70;;;18.00;91.00;;;;;;5031739;28;20164;-69
2022/10/08 08:34:21;;;;;;;2.80;2.60;;;18.00;90.90;;;;;;5031728;28;20179;-69
2022/10/08 08:36:49;;;;;;;3.00;2.80;;;18.00;90.90;;;;;;5034255;28;20264;-68
2022/10/08 08:39:21;;;;;;;3.00;2.58;;;18.00;90.90;;;;;;5033916;28;20187;-69
2022/10/08 08:42:50;;;;;;;3.10;2.80;;;18.00;90.90;;;;;;5034509;28;20180;-68
2022/10/08 08:45:28;;;;;;;3.15;2.80;;;18.00;91.00;;;;;;4993565;28;20189;-70
2022/10/08 08:48:18;;;;;;;3.10;2.85;;;18.00;91.00;;;;;;5026272;28;20704;-69
2022/10/08 08:50:47;;;;;;;2.90;2.70;;;18.00;91.00;;;;;;5035168;28;20237;-70
2022/10/08 08:53:13;;;;;;;3.25;2.67;;;18.00;90.90;;;;;;5017368;28;20187;-70
2022/10/08 08:55:44;;;;;;;3.28;2.97;;;18.00;91.00;;;;;;5017273;28;20184;-71
2022/10/08 08:58:43;;;;;;;3.08;2.65;;;17.90;90.90;;;;;;5050275;28;20229;-71
2022/10/08 09:01:09;;;;;;;3.60;3.00;;;18.00;90.90;;;;;;5034017;28;20194;-69
2022/10/08 09:03:42;;;;;;;3.58;2.80;;;18.00;91.00;;;;;;5033616;28;20191;-70
2022/10/08 09:06:16;;;;;;;3.83;2.70;;;18.00;90.90;;;;;;5017260;28;20196;-71
2022/10/08 09:09:12;;;;;;;3.15;2.58;;;18.00;90.90;;;;;;5033311;28;20269;-70
2022/10/08 09:11:38;;;;;;;2.67;2.47;;;18.00;90.90;;;;;;5033857;28;20205;-71
2022/10/08 09:14:13;;;;;;;3.38;2.38;;;18.00;91.00;;;;;;5017074;28;20187;-70
2022/10/08 09:16:40;;;;;;;3.55;3.00;;;18.00;90.90;;;;;;5033253;28;20229;-71
2022/10/08 09:19:06;;;;;;;3.25;2.60;;;18.00;90.90;;;;;;5033545;28;20250;-70
2022/10/08 09:21:33;;;;;;;2.95;2.60;;;18.00;90.90;;;;;;5017023;28;20278;-70
2022/10/08 09:24:00;;;;;;;2.55;2.35;;;18.00;91.20;;;;;;5032101;28;20233;-70
2022/10/08 09:26:32;;;;;;;2.83;2.42;;;18.00;90.90;;;;;;5029827;28;20328;-70
2022/10/08 09:29:00;;;;;;;3.10;2.70;;;18.00;90.90;;;;;;5018045;28;20195;-71
2022/10/08 09:31:45;;;;;;;2.90;2.53;;;18.00;90.90;;;;;;5009317;28;20180;-70
2022/10/08 09:34:17;;;;;;;2.90;2.60;;;18.00;90.90;;;;;;5026375;28;20237;-71
2022/10/08 09:37:00;;;;;;;3.03;2.80;;;18.00;90.90;;;;;;5032981;28;20215;-70
2022/10/08 09:39:34;;;;;;;3.30;2.63;;;18.00;90.90;;;;;;5016372;28;20207;-71
2022/10/08 09:42:05;;;;;;;2.60;2.30;;;18.00;91.00;;;;;;5032859;28;20249;-71
2022/10/08 09:44:49;;;;;;;2.60;2.40;;;18.00;90.90;;;;;;5018688;28;20254;-70
2022/10/08 09:47:19;;;;;;;2.75;2.38;;;18.00;90.90;;;;;;5026585;28;20789;-71
2022/10/08 09:50:00;;;;;;;2.75;2.55;;;18.00;90.90;;;;;;5026790;28;20270;-71
2022/10/08 09:52:27;;;;;;;2.53;2.33;;;18.00;90.90;;;;;;5032000;28;20188;-70
2022/10/08 09:55:01;;;;;;;3.72;2.70;;;18.00;90.90;;;;;;5031593;28;20183;-70
2022/10/08 09:57:30;;;;;;;2.55;2.35;;;18.00;91.00;;;;;;5029614;28;20243;-70
2022/10/08 09:59:59;;;;;;;2.70;2.50;;;18.00;91.00;;;;;;5013813;28;20308;-70
2022/10/08 10:02:35;;;;;;;2.70;2.35;;;18.00;91.00;;;;;;5049175;28;20183;-70
2022/10/08 10:05:06;;;;;;;4.82;2.45;;;18.00;91.10;;;;;;5037884;28;20187;-70
2022/10/08 10:07:51;;;;;;;2.63;2.30;;;18.00;91.10;;;;;;5016298;28;20261;-70
2022/10/08 10:10:27;;;;;;;2.67;2.47;;;18.00;91.00;;;;;;5016016;28;20211;-71
2022/10/08 10:13:03;;;;;;;2.60;2.20;;;18.00;91.10;;;;;;5035225;28;20206;-70
2022/10/08 10:15:38;;;;;;;2.65;2.45;;;18.10;91.00;;;;;;5016242;28;20635;-71
2022/10/08 10:18:34;;;;;;;3.55;2.70;;;18.10;91.10;;;;;;5061005;22;20310;-66
2022/10/08 10:21:05;;;;;;;2.78;2.58;;;18.10;91.10;;;;;;5025025;28;20226;-67
2022/10/08 10:24:03;;;;;;;2.60;2.20;;;18.00;91.00;;;;;;5053075;28;20179;-66
2022/10/08 10:26:37;;;;;;;2.40;2.15;;;18.10;91.10;;;;;;5036627;28;20226;-67
2022/10/08 10:29:20;;;;;;;2.75;2.50;;;18.10;91.20;;;;;;5025746;28;20546;-67
2022/10/08 10:31:59;;;;;;;3.42;2.25;;;18.10;91.30;;;;;;5051481;28;20185;-65
2022/10/08 10:34:34;;;;;;;3.05;2.70;;;18.10;91.30;;;;;;5052120;28;20711;-65
2022/10/08 10:37:08;;;;;;;2.60;2.40;;;18.00;91.20;;;;;;5068892;28;20217;-66
2022/10/08 10:40:33;;;;;;;3.65;2.50;;;18.10;91.30;;;;;;5035105;28;20233;-66
2022/10/08 10:43:15;;;;;;;3.72;2.40;;;18.00;91.40;;;;;;5051256;28;20201;-66
2022/10/08 10:45:47;;;;;;;2.40;2.20;;;18.10;91.40;;;;;;5041593;28;20610;-66
2022/10/08 10:48:13;;;;;;;2.83;2.35;;;18.10;91.40;;;;;;5016487;28;20218;-66
2022/10/08 10:50:57;;;;;;;3.45;2.08;;;18.10;91.40;;;;;;5031699;28;20180;-66
2022/10/08 10:53:50;;;;;;;2.50;2.30;;;18.10;91.60;;;;;;5035974;28;20171;-66
2022/10/08 10:56:19;;;;;;;2.65;2.20;;;18.10;91.30;;;;;;4994997;28;20188;-65
2022/10/08 10:59:21;;;;;;;4.75;2.60;;;18.10;91.40;;;;;;4995510;28;20191;-65
2022/10/08 11:02:05;;;;;;;3.13;2.22;;;18.10;91.40;;;;;;5031037;28;20186;-66
2022/10/08 11:04:48;;;;;;;2.78;2.15;;;18.10;91.30;;;;;;5019396;28;20191;-66
2022/10/08 11:07:23;;;;;;;3.90;2.30;;;18.10;91.40;;;;;;5031234;28;20215;-66
2022/10/08 11:10:13;;;;;;;3.83;2.63;;;18.10;91.70;;;;;;5039781;28;20190;-65
2022/10/08 11:13:24;;;;;;;3.45;2.30;;;18.10;91.40;;;;;;5031678;28;20190;-66
2022/10/08 11:16:05;;;;;;;2.63;2.33;;;18.10;91.40;;;;;;5031613;28;20186;-66
2022/10/08 11:18:57;;;;;;;2.63;2.42;;;18.10;91.40;;;;;;5031347;28;20214;-66
2022/10/08 11:21:40;;;;;;;2.53;2.33;;;18.10;91.70;;;;;;5024659;28;20200;-66
2022/10/08 11:24:36;;;;;;;2.95;2.30;;;18.10;91.50;;;;;;5028448;28;20184;-66
2022/10/08 11:27:25;;;;;;;3.30;2.78;;;18.10;91.40;;;;;;5012788;28;20242;-66
2022/10/08 11:30:15;;;;;;;3.25;2.15;;;18.10;91.20;;;;;;5027896;28;20196;-66
2022/10/08 11:32:48;;;;;;;3.65;2.30;;;18.10;91.30;;;;;;5035042;28;20187;-66
2022/10/08 11:35:35;;;;;;;3.58;2.65;;;18.10;91.30;;;;;;5014669;28;20186;-66
2022/10/08 11:38:17;;;;;;;5.47;2.33;;;18.10;91.70;;;;;;5050882;28;20202;-66
2022/10/08 11:40:51;;;;;;;3.40;2.30;;;18.10;91.40;;;;;;5027581;28;20207;-67
2022/10/08 11:43:47;;;;;;;3.47;2.33;;;18.10;91.50;;;;;;5012546;28;20182;-66
2022/10/08 11:46:35;;;;;;;5.47;2.33;;;18.20;91.80;;;;;;5010858;28;20223;-65
2022/10/08 11:49:01;;;;;;;5.45;2.45;;;18.20;91.50;;;;;;5027863;28;20266;-66
2022/10/08 11:51:32;;;;;;;2.65;2.22;;;18.20;91.50;;;;;;5051341;28;20203;-66
2022/10/08 11:54:57;;;;;;;5.13;2.70;;;18.20;91.70;;;;;;5050335;28;20190;-66
2022/10/08 11:57:33;;;;;;;2.42;2.05;;;18.20;91.80;;;;;;5049667;28;20221;-66
2022/10/08 12:00:19;;;;;;;3.95;2.42;;;18.20;91.70;;;;;;5050623;28;20224;-67
2022/10/08 12:02:53;;;;;;;2.88;2.20;;;18.20;91.60;;;;;;5034117;28;20190;-66
2022/10/08 12:05:43;;;;;;;2.28;2.08;;;18.20;92.40;;;;;;5034345;28;20273;-66
2022/10/08 12:08:09;;;;;;;2.45;2.13;;;18.20;92.20;;;;;;5035233;28;20234;-66
2022/10/08 12:10:39;;;;;;;3.20;2.45;;;18.20;91.60;;;;;;5054376;28;20643;-65
2022/10/08 12:13:11;;;;;;;5.18;2.30;;;18.20;92.30;;;;;;5071234;28;20186;-66
2022/10/08 12:15:39;;;;;;;3.95;2.47;;;18.20;92.40;;;;;;5054704;28;20631;-65
2022/10/08 12:18:16;;;;;;;2.80;2.40;;;18.20;91.40;;;;;;5054324;28;20694;-63
2022/10/08 12:20:42;;;;;;;4.00;2.35;;;18.20;91.70;;;;;;5047326;28;20176;-66
2022/10/08 12:23:28;;;;;;;4.05;2.30;;;18.20;91.90;;;;;;5025005;28;20187;-66
2022/10/08 12:26:00;;;;;;;4.25;2.47;;;18.20;91.70;;;;;;5017143;28;20218;-66
2022/10/08 12:28:31;;;;;;;4.20;2.53;;;18.20;91.90;;;;;;5041877;28;20225;-66
2022/10/08 12:31:00;;;;;;;2.88;2.10;;;18.20;91.90;;;;;;5030730;28;20188;-64
2022/10/08 12:33:29;;;;;;;2.67;2.40;;;18.20;92.50;;;;;;5014666;28;20184;-66
2022/10/08 12:36:22;;;;;;;4.88;2.15;;;18.20;92.20;;;;;;5014415;28;20596;-66
2022/10/08 12:39:38;;;;;;;3.90;2.30;;;18.20;92.00;;;;;;5032405;28;20202;-65
2022/10/08 12:42:21;;;;;;;3.75;2.38;;;18.20;91.70;;;;;;5009318;28;20220;-65
2022/10/08 12:45:02;;;;;;;2.92;2.55;;;18.20;91.50;;;;;;5015398;28;20190;-66
2022/10/08 12:47:46;;;;;;;5.65;2.47;;;18.20;91.50;;;;;;4997702;28;20219;-66
2022/10/08 12:50:33;;;;;;;2.67;2.13;;;18.20;91.30;;;;;;4997588;28;20639;-65
2022/10/08 12:53:04;;;;;;;2.95;2.22;;;18.20;91.40;;;;;;4997768;28;20184;-66
2022/10/08 12:55:42;;;;;;;3.55;2.40;;;18.20;91.20;;;;;;5014017;28;20176;-66
2022/10/08 12:58:16;;;;;;;3.22;2.33;;;18.20;91.10;;;;;;4997855;28;20223;-67
2022/10/08 13:00:43;;;;;;;4.22;2.40;;;18.20;91.00;;;;;;5014062;28;20184;-66
2022/10/08 13:03:16;;;;;;;4.40;2.13;;;18.20;91.00;;;;;;5013850;28;20198;-66
2022/10/08 13:05:43;;;;;;;3.60;2.63;;;18.20;90.80;;;;;;4997689;28;20195;-66
2022/10/08 13:08:34;;;;;;;4.28;2.03;;;18.20;90.80;;;;;;5006707;28;20217;-66
2022/10/08 13:11:06;;;;;;;5.05;2.40;;;18.20;90.80;;;;;;5028734;28;20189;-66
2022/10/08 13:13:38;;;;;;;2.83;2.22;;;18.20;91.00;;;;;;5054628;28;20174;-67
2022/10/08 13:16:15;;;;;;;4.13;2.30;;;18.20;91.00;;;;;;5053313;28;20193;-66
2022/10/08 13:18:46;;;;;;;5.10;1.98;;;18.20;90.80;;;;;;4997170;28;20318;-66
2022/10/08 13:21:30;;;;;;;3.60;2.33;;;18.20;90.60;;;;;;5012808;28;20193;-66
2022/10/08 13:23:58;;;;;;;2.78;2.13;;;18.20;90.40;;;;;;4997279;28;20181;-66